Country
Station

 

Weather  for  Bandarabbass  -  Iran    Iran

  
30 °C (86 °F)
    
 
 

Current METAR for Bandarabbass is :

OIKB 181430Z 20006KT 9999 FEW030 30/21 Q1009 A2982

 

This is a report for Bandarabbass - Iran.
 
The report was made 28 minutes ago, at 14:30 UTC .
The wind was blowing at a speed of 3.1 meters per second (6.9 miles per hour) from south/southwest (200°).
 
The temperature was 30 °C (86 °F), with a dew-point at 21 °C (70 °F).
The temperature felt like 33 °C (91 °F).
 
The atmospheric pressure was 1010 hPa (29.82 inHg).
The relative humidity was 58.6%.
 
There were a few clouds at a height of 914 meters (3000 feet).
 
The overall visibility was greater than 10 kilometers (6.2 miles).
 

 
 
 
 

Country :   A   B   C   D   E   F   G   H   I   J   K   L   M   N   O   P   Q   R   S   T   U   V   W   Y   Z

 

Site Info  |  Disclaimer  |  Credits  |  Privacy
Contact us  |  Add to favorites
© 2013-2018 METARs - All rights reserved